Jump to content

  •  

SOUTHWEST AIRLINES FLIGHT WN3308 FLOWN ON 08-04-2017 BY CAPTAIN TYLER HANUS

Pilot StatsCaptain Tyler Hanus (LDP525) • 262.7 total hours • 63 total flights [View Logbook]
FLIGHT DETAILS
StatusReceived and approved on 2017-08-04 at 19:08:55
Origin AirportMcCarran Intl (KLAS) • Las Vegas, Nevada, United States (2,180 feet MSL)
Filed Flight PlanFLIGHT PLANNER OFFLINE
Destination AirportGen Mitchell Intl (KMKE) • Milwaukee, Wisconsin, United States (723 feet MSL)
Alternate AirportNone Filed
AirlineSouthwest Airlines
AircraftBoeing 737-800 | Winglets (73H / B737-800)
FS Aircraft UsedBoeing 737-8H4NGX Southwest Airlines (Warrior One) Winglets
Cruising AltitudeFL390
Distance Flown1,321 nautical miles
Passengers Onboard81 passengers (50.00% full)
DEPARTURE DETAILS
Time Out13:18:38
Taxi Data151,627 lbs total with 24,152 lbs of fuel onboard
Takeoff Data13:31:57 (13 minutes after leaving gate/ramp) • 150,949 lbs total • 6° pitch at 156 knots
Departure METARKLAS 041856Z VRB03KT 10SM SCT085 BKN120 BKN180 33/17 A2999 RMK AO2 LTG DSNT N SLP127 T03280172
ARRIVAL DETAILS
Landing Data18:41:30 • 130,819 lbs total • 2° pitch doing 132 knots at a rate of -222.99 feet/minute with 3,096 lbs of fuel onboard
Time In18:46:45 (5 minutes after landing)
Ramp Weight130,571 lbs total
Total Fuel Used21,056 lbs
Total Block Time03:24:31 (3.4 hours) while 19 minutes were spent on the ground
Arrival METARKMKE 042252Z 31013KT 10SM FEW035 BKN065 BKN085 19/11 A2991 RMK AO2 SLP129 T01940106 $
MISCELLANEOUS DETAILS
LiveDISPATCH Version4.8.3.1
FS Version
FSUIPC Version4.96
OS VersionWindows 7 32-bit
Screen Resolution1360 x 768
Pilot's CommentsNo Comments Reported
FLIGHT MAP